Terminal Aerodrome Forecast
Issued by NWS Omaha/Valley, NE

Home | Current Version | Previous Version | Text Only | Print | Product List | Glossary On
Versions: 1 2 3 4 5 6 7 8 9 10 11 12 13 14 15 16 17 18 19 20 21 22 23 24 25 26 27 28 29 30 31
000
FTUS43 KOAX 041120
TAFOFK
TAF
KOFK 041120Z 0412/0512 15014KT P6SM -TSRA BKN100CB
     FM041400 16013KT P6SM BKN110
      TEMPO 0414/0416 -TSRA OVC070CB
     FM041600 17015G22KT P6SM SCT100
     FM050400 17012KT P6SM BKN250=

USA.gov is the U.S. government's official web portal to all federal, state and local government web resources and services.